KSTS/STS METAR and TAF weather

Enter ICAO airport designator
Station Type Date Time Source
KSTS METAR 2020/01/24 08:53 UTC NOAA

KSTS 240853Z AUTO 27003KT 9SM SCT033 OVC075 08/08 A3016 RMK AO2 SLP207 T00830083 50006


Station Type Date Time Source
KSTS Decoded METAR 2020/01/24 08:53 UTC NOAA

SANTA ROSA SONOMA COUNTY, CA, United States (KSTS) 38-30N 122-49W 39M
Jan 24, 2020 - 03:53 AM EST / 2020.01.24 0853 UTC
Wind: from the W (270 degrees) at 3 MPH (3 KT):0
Visibility: 9 mile(s):0
Sky conditions: overcast
Temperature: 46.9 F (8.3 C)
Dew Point: 46.9 F (8.3 C)
Relative Humidity: 100%
Pressure (altimeter): 30.16 in. Hg (1021 hPa)
Pressure tendency: 0.02 inches (0.6 hPa) higher than three hours ago
ob: KSTS 240853Z AUTO 27003KT 9SM SCT033 OVC075 08/08 A3016 RMK AO2 SLP207 T00830083 50006
cycle: 9

Station Type Date Time Source
KSTS TAF 2020/01/24 07:45 UTC NOAA

TAF
AMD KSTS 240642Z 2407/2506 VRB03KT 1/2SM FG VV002
FM241700 VRB03KT 6SM BR VCSH BKN006 BKN030
FM241900 VRB03KT P6SM SCT015 BKN040
FM250300 00000KT 6SM BR SCT006 BKN010 BKN040

Example: see airport list